createdAt,value
2023-02-05T00:01:31.432Z,10.20
2023-02-05T00:04:00.301Z,9.90
2023-02-05T00:06:28.587Z,9.10
2023-02-05T00:08:58.085Z,9.00
2023-02-05T00:11:30.043Z,8.40
2023-02-05T00:13:59.653Z,8.90
2023-02-05T00:16:28.136Z,7.90
2023-02-05T00:18:57.220Z,8.20
2023-02-05T00:21:25.501Z,7.50
2023-02-05T00:23:53.979Z,8.10
2023-02-05T00:26:22.254Z,7.70
2023-02-05T00:28:50.933Z,7.50
2023-02-05T00:31:20.555Z,7.50
2023-02-05T00:33:49.848Z,7.10
2023-02-05T00:36:18.844Z,7.10
2023-02-05T00:38:47.400Z,6.60
2023-02-05T00:41:16.107Z,6.70
2023-02-05T00:43:44.590Z,6.60
2023-02-05T00:46:14.166Z,6.70
2023-02-05T00:48:43.209Z,6.40
2023-02-05T00:51:11.566Z,7.10
2023-02-05T00:53:41.375Z,5.80
2023-02-05T00:56:09.767Z,6.60
2023-02-05T00:58:38.807Z,6.00
2023-02-05T01:01:07.491Z,6.60
2023-02-05T01:03:36.116Z,6.10
2023-02-05T01:06:05.559Z,6.50
2023-02-05T01:08:34.826Z,7.10
2023-02-05T01:11:07.097Z,6.80
2023-02-05T01:13:37.487Z,7.10
2023-02-05T01:16:06.077Z,6.70
2023-02-05T01:18:34.997Z,6.50
2023-02-05T01:21:03.395Z,6.50
2023-02-05T01:23:31.952Z,7.60
2023-02-05T01:26:00.638Z,7.30
2023-02-05T01:28:30.448Z,7.60
2023-02-05T01:30:59.531Z,7.70
2023-02-05T01:33:29.768Z,8.30
2023-02-05T01:35:58.450Z,8.30
2023-02-05T01:38:27.861Z,8.20
2023-02-05T01:41:00.202Z,8.30
2023-02-05T01:43:29.726Z,9.20
2023-02-05T01:46:19.558Z,8.00
2023-02-05T01:48:50.854Z,8.70
2023-02-05T01:51:19.126Z,8.40
2023-02-05T01:53:47.708Z,8.10
2023-02-05T01:56:23.251Z,8.40
2023-02-05T01:58:55.253Z,8.90
2023-02-05T02:01:24.772Z,8.40
2023-02-05T02:03:54.325Z,9.40
2023-02-05T02:06:22.601Z,9.20
2023-02-05T02:08:51.080Z,8.60
2023-02-05T02:11:20.995Z,8.80
2023-02-05T02:13:49.476Z,9.30
2023-02-05T02:16:18.320Z,10.00
2023-02-05T02:18:46.746Z,9.50
2023-02-05T02:21:28.435Z,9.40
2023-02-05T02:24:18.849Z,9.40
2023-02-05T02:27:22.846Z,10.60
2023-02-05T02:30:24.888Z,10.30
2023-02-05T02:35:37.127Z,9.50
2023-02-05T02:38:35.927Z,9.40
2023-02-05T02:41:19.141Z,9.50
2023-02-05T02:44:00.564Z,9.60
2023-02-05T02:46:52.529Z,8.40
2023-02-05T02:49:33.337Z,8.70
2023-02-05T02:52:04.072Z,8.30
2023-02-05T02:54:34.187Z,8.50
2023-02-05T02:57:03.861Z,7.90
2023-02-05T02:59:33.504Z,7.40
2023-02-05T03:02:02.991Z,7.30
2023-02-05T03:04:37.276Z,7.30
2023-02-05T03:07:16.869Z,7.50
2023-02-05T03:10:04.080Z,7.20
2023-02-05T03:12:36.458Z,7.00
2023-02-05T03:15:06.969Z,6.70
2023-02-05T03:17:35.670Z,5.90
2023-02-05T03:20:30.884Z,6.60
2023-02-05T03:22:59.361Z,5.80
2023-02-05T03:25:28.666Z,5.90
2023-02-05T03:27:58.228Z,5.60
2023-02-05T03:30:39.163Z,5.80
2023-02-05T03:33:26.865Z,5.20
2023-02-05T03:36:04.582Z,5.10
2023-02-05T03:38:36.941Z,4.90
2023-02-05T03:41:17.297Z,4.50
2023-02-05T03:44:07.584Z,4.40
2023-02-05T03:46:52.142Z,3.90
2023-02-05T03:49:56.565Z,4.50
2023-02-05T03:52:32.826Z,3.60
2023-02-05T03:55:26.484Z,2.90
2023-02-05T03:58:05.120Z,3.20
2023-02-05T04:00:34.412Z,3.30
2023-02-05T04:03:02.893Z,3.20
2023-02-05T04:08:04.795Z,3.90
2023-02-05T04:10:38.060Z,2.90
2023-02-05T04:13:08.176Z,3.80
2023-02-05T04:15:37.682Z,3.30
2023-02-05T04:20:36.910Z,3.60
2023-02-05T04:23:05.682Z,3.70
2023-02-05T04:25:34.443Z,3.70
2023-02-05T04:28:05.296Z,3.50
2023-02-05T04:30:34.005Z,3.30
2023-02-05T04:33:02.885Z,4.00
2023-02-05T04:35:32.136Z,4.30
2023-02-05T04:38:01.393Z,3.90
2023-02-05T04:40:30.481Z,3.90
2023-02-05T04:42:59.276Z,3.90
2023-02-05T04:45:31.472Z,3.90
2023-02-05T04:48:00.749Z,3.50
2023-02-05T04:50:29.423Z,3.80
2023-02-05T04:52:58.210Z,3.70
2023-02-05T04:55:26.690Z,3.50
2023-02-05T04:57:55.380Z,3.50
2023-02-05T05:00:23.953Z,3.70
2023-02-05T05:02:52.842Z,3.50
2023-02-05T05:05:21.221Z,3.40
2023-02-05T05:07:50.214Z,3.40
2023-02-05T05:10:18.900Z,3.20
2023-02-05T05:12:47.179Z,3.10
2023-02-05T05:15:15.859Z,2.70
2023-02-05T05:17:45.704Z,2.80
2023-02-05T05:20:14.030Z,2.60
2023-02-05T05:22:44.696Z,2.20
2023-02-05T05:25:13.168Z,2.40
2023-02-05T05:27:42.103Z,2.40
2023-02-05T05:30:11.767Z,2.30
2023-02-05T05:32:40.648Z,2.60
2023-02-05T05:35:09.142Z,2.40
2023-02-05T05:37:38.736Z,1.90
2023-02-05T05:40:26.674Z,2.40
2023-02-05T05:43:13.797Z,2.70
2023-02-05T05:45:42.074Z,2.40
2023-02-05T05:48:10.649Z,2.60
2023-02-05T05:50:39.273Z,2.40
2023-02-05T05:53:07.827Z,2.40
2023-02-05T05:55:36.552Z,2.10
2023-02-05T05:58:06.833Z,2.70
2023-02-05T06:00:36.531Z,2.50
2023-02-05T06:03:05.422Z,2.60
2023-02-05T06:05:34.271Z,2.70
2023-02-05T06:08:03.098Z,2.40
2023-02-05T06:10:33.219Z,2.40
2023-02-05T06:13:02.413Z,2.70
2023-02-05T06:15:32.175Z,2.50
2023-02-05T06:18:01.225Z,3.10
2023-02-05T06:20:29.606Z,2.80
2023-02-05T06:22:57.970Z,2.70
2023-02-05T06:25:26.465Z,3.10
2023-02-05T06:27:55.461Z,3.10
2023-02-05T06:30:23.924Z,3.80
2023-02-05T06:32:52.544Z,3.70
2023-02-05T06:35:20.986Z,3.70
2023-02-05T06:37:49.526Z,3.00
2023-02-05T06:40:21.328Z,3.10
2023-02-05T06:42:49.820Z,3.20
2023-02-05T06:45:18.296Z,3.80
2023-02-05T06:47:46.873Z,3.30
2023-02-05T06:50:15.565Z,2.10
2023-02-05T06:52:44.143Z,2.60
2023-02-05T06:55:12.414Z,2.20
2023-02-05T06:57:41.033Z,2.20
2023-02-05T07:00:10.399Z,2.00
2023-02-05T07:02:38.809Z,2.10
2023-02-05T07:05:07.771Z,2.20
2023-02-05T07:07:36.483Z,2.70
2023-02-05T07:10:05.771Z,2.30
2023-02-05T07:12:34.040Z,2.40
2023-02-05T07:15:02.414Z,2.40
2023-02-05T07:17:32.536Z,2.20
2023-02-05T07:20:01.021Z,2.80
2023-02-05T07:22:29.803Z,2.50
2023-02-05T07:24:59.000Z,3.20
2023-02-05T07:27:27.591Z,3.00
2023-02-05T07:29:56.270Z,3.20
2023-02-05T07:32:24.746Z,3.30
2023-02-05T07:34:53.848Z,2.30
2023-02-05T07:37:22.117Z,2.50
2023-02-05T07:39:50.604Z,2.40
2023-02-05T07:42:20.613Z,2.40
2023-02-05T07:44:55.656Z,2.30
2023-02-05T07:47:24.022Z,2.20
2023-02-05T07:49:58.447Z,2.20
2023-02-05T07:52:26.855Z,2.60
2023-02-05T07:54:55.812Z,2.10
2023-02-05T07:57:26.849Z,2.30
2023-02-05T07:59:59.226Z,2.00
2023-02-05T08:02:27.802Z,2.20
2023-02-05T08:04:56.002Z,2.20
2023-02-05T08:07:24.764Z,2.40
2023-02-05T08:09:53.449Z,1.80
2023-02-05T08:12:21.826Z,2.20
2023-02-05T08:14:52.873Z,2.20
2023-02-05T08:17:21.148Z,2.10
2023-02-05T08:19:50.957Z,2.00
2023-02-05T08:22:19.333Z,2.30
2023-02-05T08:24:47.716Z,2.50
2023-02-05T08:27:16.294Z,2.10
2023-02-05T08:29:48.135Z,3.50
2023-02-05T08:32:16.330Z,2.40
2023-02-05T08:34:44.913Z,2.30
2023-02-05T08:37:13.417Z,1.90
2023-02-05T08:39:42.182Z,2.20
2023-02-05T08:42:10.556Z,2.30
2023-02-05T08:44:38.935Z,1.90
2023-02-05T08:47:07.414Z,2.10
2023-02-05T08:49:37.493Z,2.30
2023-02-05T08:52:06.937Z,2.10
2023-02-05T08:54:35.341Z,2.20
2023-02-05T08:57:04.918Z,1.80
2023-02-05T08:59:33.502Z,2.20
2023-02-05T09:02:02.499Z,2.00
2023-02-05T09:04:31.626Z,1.90
2023-02-05T09:07:00.104Z,2.60
2023-02-05T09:09:28.652Z,2.20
2023-02-05T09:11:58.974Z,2.10
2023-02-05T09:14:27.369Z,2.40
2023-02-05T09:16:56.145Z,2.50
2023-02-05T09:19:24.830Z,2.40
2023-02-05T09:21:54.244Z,2.30
2023-02-05T09:24:22.816Z,2.10
2023-02-05T09:26:51.718Z,2.10
2023-02-05T09:29:20.094Z,1.90
2023-02-05T09:31:48.713Z,2.10
2023-02-05T09:34:17.149Z,2.30
2023-02-05T09:36:45.934Z,2.00
2023-02-05T09:39:30.726Z,2.00
2023-02-05T09:42:17.465Z,2.70
2023-02-05T09:44:51.931Z,2.10
2023-02-05T09:47:38.539Z,1.90
2023-02-05T09:50:18.957Z,1.90
2023-02-05T09:52:51.366Z,1.80
2023-02-05T09:55:25.989Z,2.10
2023-02-05T09:57:56.414Z,2.30
2023-02-05T10:00:29.811Z,1.90
2023-02-05T10:03:34.899Z,1.90
2023-02-05T10:06:16.153Z,1.90
2023-02-05T10:09:04.679Z,1.80
2023-02-05T10:11:52.098Z,2.00
2023-02-05T10:14:45.942Z,2.30
2023-02-05T10:17:35.243Z,2.30
2023-02-05T10:20:10.280Z,2.30
2023-02-05T10:23:05.482Z,2.40
2023-02-05T10:26:12.279Z,2.20
2023-02-05T10:28:52.734Z,2.20
2023-02-05T10:31:41.948Z,1.90
2023-02-05T10:34:51.126Z,2.00
2023-02-05T10:37:21.556Z,2.10
2023-02-05T10:39:50.139Z,2.20
2023-02-05T10:42:37.565Z,2.50
2023-02-05T10:45:13.936Z,1.80
2023-02-05T10:47:49.064Z,2.00
2023-02-05T10:50:20.948Z,2.40
2023-02-05T10:52:49.297Z,2.00
2023-02-05T10:55:17.883Z,1.80
2023-02-05T10:57:46.361Z,2.40
2023-02-05T11:00:16.744Z,2.00
2023-02-05T11:02:51.334Z,2.80
2023-02-05T11:05:24.595Z,2.30
2023-02-05T11:07:54.220Z,2.30
2023-02-05T11:10:27.735Z,2.00
2023-02-05T11:13:16.163Z,2.20
2023-02-05T11:15:58.287Z,2.30
2023-02-05T11:18:28.504Z,2.20
2023-02-05T11:21:06.581Z,2.20
2023-02-05T11:23:40.143Z,2.40
2023-02-05T11:26:23.521Z,2.50
2023-02-05T11:28:52.204Z,2.50
2023-02-05T11:31:33.491Z,2.90
2023-02-05T11:34:08.286Z,3.00
2023-02-05T11:36:38.248Z,3.10
2023-02-05T11:39:07.108Z,3.70
2023-02-05T11:41:48.565Z,3.90
2023-02-05T11:46:47.843Z,2.90
2023-02-05T11:49:36.261Z,2.60
2023-02-05T11:52:10.070Z,2.80
2023-02-05T11:54:38.850Z,3.20
2023-02-05T11:57:30.269Z,3.10
2023-02-05T12:00:08.790Z,2.70
2023-02-05T12:02:38.767Z,3.30
2023-02-05T12:05:13.127Z,5.40
2023-02-05T12:08:19.489Z,3.60
2023-02-05T12:10:57.999Z,3.50
2023-02-05T12:13:45.738Z,3.90
2023-02-05T12:16:46.577Z,3.50
2023-02-05T12:19:22.635Z,3.30
2023-02-05T12:21:55.516Z,2.70
2023-02-05T12:27:15.727Z,4.00
2023-02-05T12:30:02.536Z,3.20
2023-02-05T12:32:37.178Z,3.00
2023-02-05T12:35:17.820Z,3.30
2023-02-05T12:37:57.567Z,3.50
2023-02-05T12:40:38.849Z,3.50
2023-02-05T12:43:11.316Z,4.50
2023-02-05T12:45:58.071Z,4.20
2023-02-05T12:48:39.409Z,4.30
2023-02-05T12:51:10.978Z,3.90
2023-02-05T12:53:48.354Z,3.90
2023-02-05T12:56:22.667Z,3.40
2023-02-05T12:58:56.251Z,3.00
2023-02-05T13:01:45.424Z,3.30
2023-02-05T13:04:36.654Z,3.10
2023-02-05T13:07:15.878Z,3.00
2023-02-05T13:09:53.784Z,3.40
2023-02-05T13:12:23.594Z,3.70
2023-02-05T13:14:58.022Z,4.70
2023-02-05T13:17:28.461Z,3.80
2023-02-05T13:20:01.624Z,5.70
2023-02-05T13:22:57.553Z,4.90
2023-02-05T13:25:37.762Z,4.70
2023-02-05T13:28:40.340Z,6.10
2023-02-05T13:33:40.019Z,3.80
2023-02-05T13:36:31.741Z,4.90
2023-02-05T13:39:03.394Z,4.20
2023-02-05T13:41:37.913Z,4.70
2023-02-05T13:44:14.994Z,3.90
2023-02-05T13:47:05.699Z,4.50
2023-02-05T13:49:59.469Z,6.30
2023-02-05T13:52:46.997Z,4.60
2023-02-05T13:55:21.526Z,4.40
2023-02-05T13:58:27.684Z,4.50
2023-02-05T14:01:03.135Z,4.50
2023-02-05T14:03:39.478Z,3.70
2023-02-05T14:06:22.196Z,3.20
2023-02-05T14:08:52.014Z,3.80
2023-02-05T14:11:20.703Z,3.20
2023-02-05T14:14:17.856Z,3.80
2023-02-05T14:16:50.063Z,3.70
2023-02-05T14:19:29.768Z,3.50
2023-02-05T14:22:03.528Z,3.40
2023-02-05T14:24:46.338Z,3.00
2023-02-05T14:27:42.384Z,3.90
2023-02-05T14:30:38.060Z,4.10
2023-02-05T14:33:28.530Z,4.20
2023-02-05T14:36:23.035Z,4.30
2023-02-05T14:39:02.597Z,4.50
2023-02-05T14:41:40.361Z,4.00
2023-02-05T14:44:26.770Z,3.60
2023-02-05T14:47:03.137Z,3.50
2023-02-05T14:49:39.487Z,3.50
2023-02-05T14:52:29.060Z,3.10
2023-02-05T14:55:16.075Z,4.20
2023-02-05T14:57:55.847Z,3.70
2023-02-05T15:00:30.153Z,3.80
2023-02-05T15:03:04.780Z,4.00
2023-02-05T15:05:44.200Z,4.60
2023-02-05T15:08:32.860Z,3.50
2023-02-05T15:11:23.037Z,3.90
2023-02-05T15:14:24.698Z,3.70
2023-02-05T15:17:05.892Z,3.60
2023-02-05T15:19:41.727Z,4.10
2023-02-05T15:22:36.013Z,4.10
2023-02-05T15:25:22.929Z,4.20
2023-02-05T15:27:55.567Z,4.10
2023-02-05T15:30:25.973Z,4.20
2023-02-05T15:32:59.736Z,4.50
2023-02-05T15:35:29.036Z,4.20
2023-02-05T15:38:25.087Z,5.00
2023-02-05T15:40:53.548Z,5.00
2023-02-05T15:43:23.693Z,4.80
2023-02-05T15:46:03.053Z,4.20
2023-02-05T15:48:33.103Z,4.70
2023-02-05T15:51:03.568Z,4.50
2023-02-05T15:53:57.114Z,4.40
2023-02-05T15:56:32.554Z,4.50
2023-02-05T15:59:06.873Z,4.60
2023-02-05T16:01:46.929Z,4.80
2023-02-05T16:04:20.294Z,5.10
2023-02-05T16:06:55.204Z,5.00
2023-02-05T16:09:25.676Z,4.80
2023-02-05T16:11:54.361Z,5.10
2023-02-05T16:14:28.586Z,5.70
2023-02-05T16:16:59.008Z,5.80
2023-02-05T16:19:32.517Z,5.30
2023-02-05T16:22:04.462Z,5.30
2023-02-05T16:24:38.057Z,5.30
2023-02-05T16:27:13.726Z,5.50
2023-02-05T16:29:48.261Z,5.80
2023-02-05T16:32:38.933Z,5.60
2023-02-05T16:35:09.248Z,6.00
2023-02-05T16:37:38.551Z,5.40
2023-02-05T16:40:10.001Z,6.30
2023-02-05T16:42:39.607Z,5.70
2023-02-05T16:45:08.087Z,5.40
2023-02-05T16:47:37.405Z,5.90
2023-02-05T16:50:35.641Z,6.40
2023-02-05T16:53:04.354Z,5.50
2023-02-05T16:56:02.705Z,6.10
2023-02-05T16:58:39.303Z,6.10
2023-02-05T17:01:08.120Z,5.80
2023-02-05T17:03:41.490Z,5.90
2023-02-05T17:06:14.893Z,6.30
2023-02-05T17:08:46.949Z,5.70
2023-02-05T17:11:37.753Z,6.40
2023-02-05T17:14:10.642Z,6.40
2023-02-05T17:16:42.690Z,6.20
2023-02-05T17:19:26.421Z,6.60
2023-02-05T17:22:13.669Z,6.00
2023-02-05T17:24:46.445Z,5.40
2023-02-05T17:27:27.006Z,6.40
2023-02-05T17:29:56.101Z,6.60
2023-02-05T17:32:24.784Z,6.50
2023-02-05T17:34:53.377Z,6.60
2023-02-05T17:37:21.854Z,6.80
2023-02-05T17:39:51.781Z,6.00
2023-02-05T17:42:24.862Z,6.00
2023-02-05T17:44:54.256Z,6.40
2023-02-05T17:47:22.732Z,6.90
2023-02-05T17:49:51.432Z,6.10
2023-02-05T17:52:20.108Z,6.50
2023-02-05T17:54:50.120Z,6.50
2023-02-05T17:57:20.566Z,6.60
2023-02-05T17:59:49.030Z,6.80
2023-02-05T18:02:17.555Z,6.60
2023-02-05T18:04:50.596Z,6.40
2023-02-05T18:07:25.429Z,7.60
2023-02-05T18:09:53.907Z,7.30
2023-02-05T18:12:22.493Z,6.90
2023-02-05T18:14:51.070Z,7.10
2023-02-05T18:17:20.982Z,7.00
2023-02-05T18:19:49.466Z,6.60
2023-02-05T18:22:18.051Z,7.00
2023-02-05T18:24:46.532Z,6.20
2023-02-05T18:27:14.921Z,6.60
2023-02-05T18:29:43.906Z,7.10
2023-02-05T18:32:12.412Z,7.20
2023-02-05T18:34:41.076Z,6.60
2023-02-05T18:37:09.648Z,6.50
2023-02-05T18:39:38.333Z,7.10
2023-02-05T18:42:07.126Z,6.90
2023-02-05T18:44:35.973Z,6.90
2023-02-05T18:47:06.148Z,6.60
2023-02-05T18:49:35.151Z,6.60
2023-02-05T18:52:04.710Z,6.60
2023-02-05T18:54:33.411Z,7.60
2023-02-05T18:57:02.097Z,6.80
2023-02-05T18:59:30.782Z,7.20
2023-02-05T19:01:59.774Z,7.90
2023-02-05T19:04:33.118Z,6.90
2023-02-05T19:07:01.674Z,6.90
2023-02-05T19:09:30.589Z,7.30
2023-02-05T19:11:59.119Z,6.30
2023-02-05T19:14:27.912Z,6.70
2023-02-05T19:16:57.035Z,6.50
2023-02-05T19:19:25.989Z,6.70
2023-02-05T19:21:55.910Z,7.30
2023-02-05T19:24:24.283Z,6.70
2023-02-05T19:26:56.755Z,6.60
2023-02-05T19:29:27.084Z,7.50
2023-02-05T19:31:58.950Z,7.00
2023-02-05T19:34:29.263Z,7.30
2023-02-05T19:36:58.667Z,7.10
2023-02-05T19:39:28.217Z,6.80
2023-02-05T19:41:56.659Z,7.00
2023-02-05T19:44:27.521Z,7.00
2023-02-05T19:46:55.977Z,7.10
2023-02-05T19:49:24.666Z,6.90
2023-02-05T19:51:55.597Z,6.80
2023-02-05T19:54:23.979Z,7.00
2023-02-05T19:56:52.674Z,6.80
2023-02-05T19:59:21.556Z,7.20
2023-02-05T20:01:50.899Z,7.00
2023-02-05T20:04:25.088Z,6.90
2023-02-05T20:06:58.426Z,6.30
2023-02-05T20:09:26.951Z,7.10
2023-02-05T20:11:55.928Z,7.10
2023-02-05T20:14:25.137Z,6.70
2023-02-05T20:16:53.737Z,6.70
2023-02-05T20:19:22.214Z,6.70
2023-02-05T20:21:51.184Z,7.30
2023-02-05T20:24:19.662Z,6.40
2023-02-05T20:26:48.744Z,6.60
2023-02-05T20:29:35.999Z,6.60
2023-02-05T20:32:05.675Z,7.50
2023-02-05T20:34:36.388Z,8.00
2023-02-05T20:37:07.169Z,6.70
2023-02-05T20:39:39.971Z,6.00
2023-02-05T20:42:10.780Z,7.70
2023-02-05T20:44:39.290Z,6.70
2023-02-05T20:47:08.958Z,7.10
2023-02-05T20:49:40.194Z,6.70
2023-02-05T20:52:09.054Z,6.90
2023-02-05T20:54:39.635Z,6.10
2023-02-05T20:57:09.341Z,7.00
2023-02-05T20:59:38.834Z,6.80
2023-02-05T21:02:07.712Z,7.40
2023-02-05T21:04:36.931Z,7.40
2023-02-05T21:07:05.304Z,6.60
2023-02-05T21:09:36.257Z,6.70
2023-02-05T21:12:05.133Z,6.50
2023-02-05T21:14:33.834Z,6.80
2023-02-05T21:17:02.497Z,7.00
2023-02-05T21:19:32.734Z,7.00
2023-02-05T21:22:01.613Z,7.60
2023-02-05T21:24:29.989Z,6.80
2023-02-05T21:26:58.897Z,7.10
2023-02-05T21:29:27.357Z,7.60
2023-02-05T21:31:56.071Z,6.80
2023-02-05T21:34:26.758Z,6.60
2023-02-05T21:36:55.462Z,8.00
2023-02-05T21:39:23.847Z,8.20
2023-02-05T21:41:53.649Z,8.20
2023-02-05T21:44:22.455Z,7.40
2023-02-05T21:46:52.657Z,7.40
2023-02-05T21:49:20.934Z,7.80
2023-02-05T21:51:50.539Z,7.00
2023-02-05T21:54:21.001Z,7.60
2023-02-05T21:56:49.761Z,7.50
2023-02-05T21:59:20.293Z,7.00
2023-02-05T22:01:49.225Z,6.90
2023-02-05T22:04:17.385Z,7.70
2023-02-05T22:06:45.934Z,7.90
2023-02-05T22:09:16.878Z,7.70
2023-02-05T22:11:45.440Z,8.00
2023-02-05T22:14:13.950Z,7.10
2023-02-05T22:16:44.903Z,7.60
2023-02-05T22:19:19.826Z,7.90
2023-02-05T22:21:48.496Z,8.40
2023-02-05T22:24:18.612Z,8.10
2023-02-05T22:26:47.201Z,8.10
2023-02-05T22:29:17.612Z,8.60
2023-02-05T22:31:49.311Z,8.30
2023-02-05T22:34:17.960Z,8.30
2023-02-05T22:36:46.641Z,9.30
2023-02-05T22:39:14.843Z,9.10
2023-02-05T22:41:43.423Z,7.90
2023-02-05T22:44:12.082Z,8.50
2023-02-05T22:46:42.711Z,8.70
2023-02-05T22:49:12.013Z,8.80
2023-02-05T22:51:40.904Z,9.40
2023-02-05T22:54:11.337Z,8.70
2023-02-05T22:56:39.914Z,8.70
2023-02-05T22:59:09.117Z,8.80
2023-02-05T23:01:39.275Z,7.90
2023-02-05T23:04:08.429Z,8.50
2023-02-05T23:06:41.717Z,8.20
2023-02-05T23:09:16.309Z,8.30
2023-02-05T23:11:49.023Z,8.80
2023-02-05T23:14:17.707Z,9.60
2023-02-05T23:16:47.757Z,8.60
2023-02-05T23:19:19.872Z,8.70
2023-02-05T23:21:48.376Z,8.60
2023-02-05T23:24:17.767Z,8.50
2023-02-05T23:26:48.300Z,9.50
2023-02-05T23:29:17.317Z,8.70
2023-02-05T23:31:45.597Z,9.10
2023-02-05T23:34:14.208Z,8.90
2023-02-05T23:36:43.553Z,9.90
2023-02-05T23:39:11.832Z,9.50
2023-02-05T23:41:40.531Z,8.50
2023-02-05T23:44:14.476Z,8.90
2023-02-05T23:46:43.105Z,8.90
2023-02-05T23:49:12.213Z,9.40
2023-02-05T23:51:41.201Z,9.90
2023-02-05T23:54:10.386Z,10.50
2023-02-05T23:56:40.307Z,10.00
2023-02-05T23:59:08.995Z,9.60
